sensor_id;sensor_type;location;lat;lon;timestamp;P1;durP1;ratioP1;P2;durP2;ratioP2
44925;SDS011;30662;51.210;7.656;2023-02-28T00:00:19;9.23;;;4.57;;
44925;SDS011;30662;51.210;7.656;2023-02-28T00:02:46;8.32;;;4.50;;
44925;SDS011;30662;51.210;7.656;2023-02-28T00:05:13;10.60;;;4.38;;
44925;SDS011;30662;51.210;7.656;2023-02-28T00:07:41;8.77;;;3.95;;
44925;SDS011;30662;51.210;7.656;2023-02-28T00:10:10;9.52;;;4.13;;
44925;SDS011;30662;51.210;7.656;2023-02-28T00:12:37;5.68;;;3.95;;
44925;SDS011;30662;51.210;7.656;2023-02-28T00:15:08;7.93;;;4.90;;
44925;SDS011;30662;51.210;7.656;2023-02-28T00:17:35;6.30;;;3.80;;
44925;SDS011;30662;51.210;7.656;2023-02-28T00:20:02;5.85;;;4.22;;
44925;SDS011;30662;51.210;7.656;2023-02-28T00:22:30;6.25;;;5.43;;
44925;SDS011;30662;51.210;7.656;2023-02-28T00:24:56;8.15;;;5.05;;
44925;SDS011;30662;51.210;7.656;2023-02-28T00:27:22;7.25;;;5.32;;
44925;SDS011;30662;51.210;7.656;2023-02-28T00:29:48;10.00;;;5.22;;
44925;SDS011;30662;51.210;7.656;2023-02-28T00:32:14;6.30;;;4.50;;
44925;SDS011;30662;51.210;7.656;2023-02-28T00:34:40;9.77;;;4.35;;
44925;SDS011;30662;51.210;7.656;2023-02-28T00:37:07;5.93;;;3.88;;
44925;SDS011;30662;51.210;7.656;2023-02-28T00:39:35;4.55;;;3.70;;
44925;SDS011;30662;51.210;7.656;2023-02-28T00:42:02;7.13;;;4.00;;
44925;SDS011;30662;51.210;7.656;2023-02-28T00:44:29;5.68;;;4.28;;
44925;SDS011;30662;51.210;7.656;2023-02-28T00:46:55;5.43;;;3.72;;
44925;SDS011;30662;51.210;7.656;2023-02-28T00:49:22;10.45;;;4.38;;
44925;SDS011;30662;51.210;7.656;2023-02-28T00:51:48;4.93;;;4.25;;
44925;SDS011;30662;51.210;7.656;2023-02-28T00:54:14;5.15;;;3.80;;
44925;SDS011;30662;51.210;7.656;2023-02-28T00:56:40;4.32;;;3.45;;
44925;SDS011;30662;51.210;7.656;2023-02-28T00:59:06;4.05;;;3.47;;
44925;SDS011;30662;51.210;7.656;2023-02-28T01:01:33;6.57;;;3.30;;
44925;SDS011;30662;51.210;7.656;2023-02-28T01:04:00;4.28;;;3.80;;
44925;SDS011;30662;51.210;7.656;2023-02-28T01:06:26;4.82;;;3.35;;
44925;SDS011;30662;51.210;7.656;2023-02-28T01:08:51;9.35;;;4.15;;
44925;SDS011;30662;51.210;7.656;2023-02-28T01:11:18;3.65;;;3.33;;
44925;SDS011;30662;51.210;7.656;2023-02-28T01:13:46;6.28;;;3.33;;
44925;SDS011;30662;51.210;7.656;2023-02-28T01:16:13;5.35;;;3.67;;
44925;SDS011;30662;51.210;7.656;2023-02-28T01:18:39;5.93;;;3.22;;
44925;SDS011;30662;51.210;7.656;2023-02-28T01:21:07;5.05;;;3.55;;
44925;SDS011;30662;51.210;7.656;2023-02-28T01:23:41;8.13;;;3.70;;
44925;SDS011;30662;51.210;7.656;2023-02-28T01:26:12;6.43;;;3.67;;
44925;SDS011;30662;51.210;7.656;2023-02-28T01:28:45;6.47;;;4.30;;
44925;SDS011;30662;51.210;7.656;2023-02-28T01:31:12;6.18;;;3.55;;
44925;SDS011;30662;51.210;7.656;2023-02-28T01:33:38;7.30;;;3.65;;
44925;SDS011;30662;51.210;7.656;2023-02-28T01:36:15;8.63;;;4.47;;
44925;SDS011;30662;51.210;7.656;2023-02-28T01:38:44;5.25;;;3.47;;
44925;SDS011;30662;51.210;7.656;2023-02-28T01:41:21;6.05;;;3.97;;
44925;SDS011;30662;51.210;7.656;2023-02-28T01:46:15;6.63;;;3.45;;
44925;SDS011;30662;51.210;7.656;2023-02-28T01:48:42;4.22;;;3.78;;
44925;SDS011;30662;51.210;7.656;2023-02-28T01:51:17;5.47;;;3.85;;
44925;SDS011;30662;51.210;7.656;2023-02-28T01:53:49;5.90;;;3.92;;
44925;SDS011;30662;51.210;7.656;2023-02-28T01:56:20;4.18;;;3.25;;
44925;SDS011;30662;51.210;7.656;2023-02-28T01:58:50;5.75;;;3.78;;
44925;SDS011;30662;51.210;7.656;2023-02-28T02:01:18;4.55;;;3.88;;
44925;SDS011;30662;51.210;7.656;2023-02-28T02:03:49;6.13;;;4.28;;
44925;SDS011;30662;51.210;7.656;2023-02-28T02:06:30;4.47;;;3.80;;
44925;SDS011;30662;51.210;7.656;2023-02-28T02:09:11;7.40;;;4.20;;
44925;SDS011;30662;51.210;7.656;2023-02-28T02:11:37;4.53;;;3.60;;
44925;SDS011;30662;51.210;7.656;2023-02-28T02:22:35;5.63;;;4.00;;
44925;SDS011;30662;51.210;7.656;2023-02-28T02:31:13;5.47;;;3.70;;
44925;SDS011;30662;51.210;7.656;2023-02-28T02:36:13;9.93;;;5.05;;
44925;SDS011;30662;51.210;7.656;2023-02-28T02:38:48;5.50;;;3.58;;
44925;SDS011;30662;51.210;7.656;2023-02-28T02:41:21;4.72;;;4.05;;
44925;SDS011;30662;51.210;7.656;2023-02-28T02:47:09;4.25;;;3.67;;
44925;SDS011;30662;51.210;7.656;2023-02-28T02:49:39;6.05;;;3.63;;
44925;SDS011;30662;51.210;7.656;2023-02-28T02:52:09;4.85;;;3.65;;
44925;SDS011;30662;51.210;7.656;2023-02-28T02:54:40;4.35;;;3.88;;
44925;SDS011;30662;51.210;7.656;2023-02-28T03:00:03;4.28;;;3.88;;
44925;SDS011;30662;51.210;7.656;2023-02-28T03:02:33;4.05;;;3.53;;
44925;SDS011;30662;51.210;7.656;2023-02-28T03:05:04;4.85;;;3.70;;
44925;SDS011;30662;51.210;7.656;2023-02-28T03:07:38;6.10;;;3.63;;
44925;SDS011;30662;51.210;7.656;2023-02-28T03:10:25;3.78;;;3.45;;
44925;SDS011;30662;51.210;7.656;2023-02-28T03:13:14;4.88;;;3.65;;
44925;SDS011;30662;51.210;7.656;2023-02-28T03:26:25;4.60;;;3.50;;
44925;SDS011;30662;51.210;7.656;2023-02-28T03:31:30;4.75;;;3.22;;
44925;SDS011;30662;51.210;7.656;2023-02-28T03:34:17;3.42;;;2.97;;
44925;SDS011;30662;51.210;7.656;2023-02-28T03:36:51;4.03;;;3.10;;
44925;SDS011;30662;51.210;7.656;2023-02-28T03:39:23;4.65;;;3.10;;
44925;SDS011;30662;51.210;7.656;2023-02-28T03:41:57;5.28;;;3.10;;
44925;SDS011;30662;51.210;7.656;2023-02-28T03:44:30;3.88;;;3.13;;
44925;SDS011;30662;51.210;7.656;2023-02-28T03:47:04;6.63;;;3.50;;
44925;SDS011;30662;51.210;7.656;2023-02-28T03:49:45;4.30;;;3.35;;
44925;SDS011;30662;51.210;7.656;2023-02-28T03:52:15;5.65;;;3.70;;
44925;SDS011;30662;51.210;7.656;2023-02-28T03:54:45;3.03;;;2.72;;
44925;SDS011;30662;51.210;7.656;2023-02-28T03:57:32;5.18;;;3.70;;
44925;SDS011;30662;51.210;7.656;2023-02-28T04:00:16;6.00;;;3.50;;
44925;SDS011;30662;51.210;7.656;2023-02-28T04:02:45;4.60;;;3.20;;
44925;SDS011;30662;51.210;7.656;2023-02-28T04:05:11;4.57;;;3.15;;
44925;SDS011;30662;51.210;7.656;2023-02-28T04:07:37;5.32;;;3.63;;
44925;SDS011;30662;51.210;7.656;2023-02-28T04:10:03;4.53;;;3.40;;
44925;SDS011;30662;51.210;7.656;2023-02-28T04:12:33;4.88;;;3.65;;
44925;SDS011;30662;51.210;7.656;2023-02-28T04:14:59;4.72;;;3.22;;
44925;SDS011;30662;51.210;7.656;2023-02-28T04:17:25;7.10;;;3.92;;
44925;SDS011;30662;51.210;7.656;2023-02-28T04:19:51;5.50;;;3.58;;
44925;SDS011;30662;51.210;7.656;2023-02-28T04:22:17;3.85;;;3.10;;
44925;SDS011;30662;51.210;7.656;2023-02-28T04:24:43;3.85;;;3.20;;
44925;SDS011;30662;51.210;7.656;2023-02-28T04:27:09;3.53;;;3.15;;
44925;SDS011;30662;51.210;7.656;2023-02-28T04:29:35;5.70;;;3.13;;
44925;SDS011;30662;51.210;7.656;2023-02-28T04:32:01;5.55;;;3.50;;
44925;SDS011;30662;51.210;7.656;2023-02-28T04:34:29;5.55;;;3.42;;
44925;SDS011;30662;51.210;7.656;2023-02-28T04:36:56;3.50;;;3.20;;
44925;SDS011;30662;51.210;7.656;2023-02-28T04:39:37;6.18;;;3.45;;
44925;SDS011;30662;51.210;7.656;2023-02-28T04:42:04;3.55;;;3.22;;
44925;SDS011;30662;51.210;7.656;2023-02-28T04:44:30;4.15;;;3.25;;
44925;SDS011;30662;51.210;7.656;2023-02-28T04:46:55;3.72;;;3.30;;
44925;SDS011;30662;51.210;7.656;2023-02-28T04:49:21;4.70;;;3.17;;
44925;SDS011;30662;51.210;7.656;2023-02-28T04:51:47;5.18;;;3.72;;
44925;SDS011;30662;51.210;7.656;2023-02-28T04:54:15;4.15;;;3.22;;
44925;SDS011;30662;51.210;7.656;2023-02-28T04:56:41;3.58;;;3.28;;
44925;SDS011;30662;51.210;7.656;2023-02-28T04:59:07;6.43;;;3.42;;
44925;SDS011;30662;51.210;7.656;2023-02-28T05:01:33;5.07;;;3.83;;
44925;SDS011;30662;51.210;7.656;2023-02-28T05:04:00;3.70;;;3.20;;
44925;SDS011;30662;51.210;7.656;2023-02-28T05:06:28;4.22;;;3.50;;
44925;SDS011;30662;51.210;7.656;2023-02-28T05:08:56;5.45;;;3.80;;
44925;SDS011;30662;51.210;7.656;2023-02-28T05:11:26;5.53;;;4.80;;
44925;SDS011;30662;51.210;7.656;2023-02-28T05:13:55;6.30;;;4.03;;
44925;SDS011;30662;51.210;7.656;2023-02-28T05:16:21;5.68;;;3.78;;
44925;SDS011;30662;51.210;7.656;2023-02-28T05:18:47;6.18;;;3.45;;
44925;SDS011;30662;51.210;7.656;2023-02-28T05:23:50;3.85;;;3.13;;
44925;SDS011;30662;51.210;7.656;2023-02-28T05:26:17;4.68;;;3.47;;
44925;SDS011;30662;51.210;7.656;2023-02-28T05:28:44;4.63;;;3.28;;
44925;SDS011;30662;51.210;7.656;2023-02-28T05:31:13;4.60;;;4.00;;
44925;SDS011;30662;51.210;7.656;2023-02-28T05:33:39;4.28;;;3.88;;
44925;SDS011;30662;51.210;7.656;2023-02-28T05:36:05;3.60;;;3.30;;
44925;SDS011;30662;51.210;7.656;2023-02-28T05:38:31;6.18;;;3.92;;
44925;SDS011;30662;51.210;7.656;2023-02-28T05:40:57;3.70;;;3.10;;
44925;SDS011;30662;51.210;7.656;2023-02-28T05:43:24;6.38;;;3.20;;
44925;SDS011;30662;51.210;7.656;2023-02-28T05:45:50;4.55;;;3.50;;
44925;SDS011;30662;51.210;7.656;2023-02-28T05:48:15;4.38;;;3.33;;
44925;SDS011;30662;51.210;7.656;2023-02-28T05:50:42;3.78;;;3.40;;
44925;SDS011;30662;51.210;7.656;2023-02-28T05:53:10;3.78;;;3.40;;
44925;SDS011;30662;51.210;7.656;2023-02-28T05:55:36;4.38;;;3.70;;
44925;SDS011;30662;51.210;7.656;2023-02-28T05:58:03;3.72;;;3.35;;
44925;SDS011;30662;51.210;7.656;2023-02-28T06:00:28;3.60;;;3.30;;
44925;SDS011;30662;51.210;7.656;2023-02-28T06:02:54;4.75;;;3.60;;
44925;SDS011;30662;51.210;7.656;2023-02-28T06:05:23;4.00;;;3.65;;
44925;SDS011;30662;51.210;7.656;2023-02-28T06:07:49;4.53;;;3.60;;
44925;SDS011;30662;51.210;7.656;2023-02-28T06:10:15;6.38;;;3.30;;
44925;SDS011;30662;51.210;7.656;2023-02-28T06:12:41;6.07;;;3.67;;
44925;SDS011;30662;51.210;7.656;2023-02-28T06:15:15;3.58;;;3.28;;
44925;SDS011;30662;51.210;7.656;2023-02-28T06:17:42;4.43;;;3.10;;
44925;SDS011;30662;51.210;7.656;2023-02-28T06:20:10;4.25;;;3.17;;
44925;SDS011;30662;51.210;7.656;2023-02-28T06:22:38;4.45;;;3.60;;
44925;SDS011;30662;51.210;7.656;2023-02-28T06:25:05;3.70;;;3.38;;
44925;SDS011;30662;51.210;7.656;2023-02-28T06:27:32;4.68;;;2.90;;
44925;SDS011;30662;51.210;7.656;2023-02-28T06:29:59;6.88;;;3.47;;
44925;SDS011;30662;51.210;7.656;2023-02-28T06:32:24;4.05;;;3.50;;
44925;SDS011;30662;51.210;7.656;2023-02-28T06:34:50;5.53;;;3.40;;
44925;SDS011;30662;51.210;7.656;2023-02-28T06:37:17;3.50;;;3.20;;
44925;SDS011;30662;51.210;7.656;2023-02-28T06:39:43;4.05;;;3.58;;
44925;SDS011;30662;51.210;7.656;2023-02-28T06:42:09;3.22;;;2.90;;
44925;SDS011;30662;51.210;7.656;2023-02-28T06:44:35;5.07;;;3.13;;
44925;SDS011;30662;51.210;7.656;2023-02-28T06:47:02;3.95;;;3.55;;
44925;SDS011;30662;51.210;7.656;2023-02-28T06:49:30;6.85;;;3.80;;
44925;SDS011;30662;51.210;7.656;2023-02-28T06:51:57;3.80;;;3.10;;
44925;SDS011;30662;51.210;7.656;2023-02-28T06:54:23;4.78;;;3.70;;
44925;SDS011;30662;51.210;7.656;2023-02-28T06:56:49;5.13;;;3.67;;
44925;SDS011;30662;51.210;7.656;2023-02-28T06:59:15;3.83;;;3.42;;
44925;SDS011;30662;51.210;7.656;2023-02-28T07:01:42;4.40;;;4.00;;
44925;SDS011;30662;51.210;7.656;2023-02-28T07:04:08;4.70;;;4.30;;
44925;SDS011;30662;51.210;7.656;2023-02-28T07:06:34;3.90;;;3.55;;
44925;SDS011;30662;51.210;7.656;2023-02-28T07:09:00;4.60;;;3.47;;
44925;SDS011;30662;51.210;7.656;2023-02-28T07:11:26;3.65;;;3.22;;
44925;SDS011;30662;51.210;7.656;2023-02-28T07:13:57;3.80;;;3.35;;
44925;SDS011;30662;51.210;7.656;2023-02-28T07:16:24;3.35;;;2.85;;
44925;SDS011;30662;51.210;7.656;2023-02-28T07:18:52;4.38;;;3.00;;
44925;SDS011;30662;51.210;7.656;2023-02-28T07:21:18;3.97;;;2.83;;
44925;SDS011;30662;51.210;7.656;2023-02-28T07:23:44;3.92;;;2.88;;
44925;SDS011;30662;51.210;7.656;2023-02-28T07:26:11;4.55;;;2.80;;
44925;SDS011;30662;51.210;7.656;2023-02-28T07:28:43;3.35;;;3.05;;
44925;SDS011;30662;51.210;7.656;2023-02-28T07:31:12;3.10;;;2.80;;
44925;SDS011;30662;51.210;7.656;2023-02-28T07:33:42;3.45;;;2.80;;
44925;SDS011;30662;51.210;7.656;2023-02-28T07:36:11;6.10;;;3.08;;
44925;SDS011;30662;51.210;7.656;2023-02-28T07:38:43;3.47;;;3.15;;
44925;SDS011;30662;51.210;7.656;2023-02-28T07:41:17;4.50;;;2.83;;
44925;SDS011;30662;51.210;7.656;2023-02-28T07:43:45;3.85;;;2.80;;
44925;SDS011;30662;51.210;7.656;2023-02-28T07:46:14;3.85;;;2.90;;
44925;SDS011;30662;51.210;7.656;2023-02-28T07:48:41;4.13;;;2.83;;
44925;SDS011;30662;51.210;7.656;2023-02-28T07:51:08;4.15;;;2.92;;
44925;SDS011;30662;51.210;7.656;2023-02-28T07:53:34;3.30;;;2.90;;
44925;SDS011;30662;51.210;7.656;2023-02-28T07:56:01;4.13;;;2.95;;
44925;SDS011;30662;51.210;7.656;2023-02-28T07:58:28;3.08;;;2.28;;
44925;SDS011;30662;51.210;7.656;2023-02-28T08:00:54;3.65;;;2.67;;
44925;SDS011;30662;51.210;7.656;2023-02-28T08:03:21;3.65;;;2.80;;
44925;SDS011;30662;51.210;7.656;2023-02-28T08:05:49;2.60;;;2.40;;
44925;SDS011;30662;51.210;7.656;2023-02-28T08:08:15;4.07;;;2.83;;
44925;SDS011;30662;51.210;7.656;2023-02-28T08:10:43;3.15;;;2.40;;
44925;SDS011;30662;51.210;7.656;2023-02-28T08:13:09;2.90;;;2.63;;
44925;SDS011;30662;51.210;7.656;2023-02-28T08:15:35;5.65;;;3.30;;
44925;SDS011;30662;51.210;7.656;2023-02-28T08:18:01;4.00;;;2.92;;
44925;SDS011;30662;51.210;7.656;2023-02-28T08:20:27;2.95;;;2.65;;
44925;SDS011;30662;51.210;7.656;2023-02-28T08:22:54;4.47;;;2.60;;
44925;SDS011;30662;51.210;7.656;2023-02-28T08:25:19;4.13;;;2.20;;
44925;SDS011;30662;51.210;7.656;2023-02-28T08:27:45;3.70;;;2.50;;
44925;SDS011;30662;51.210;7.656;2023-02-28T08:30:12;4.75;;;2.67;;
44925;SDS011;30662;51.210;7.656;2023-02-28T08:32:39;2.85;;;2.63;;
44925;SDS011;30662;51.210;7.656;2023-02-28T08:35:06;3.92;;;2.30;;
44925;SDS011;30662;51.210;7.656;2023-02-28T08:37:34;4.05;;;2.90;;
44925;SDS011;30662;51.210;7.656;2023-02-28T08:40:00;3.22;;;2.75;;
44925;SDS011;30662;51.210;7.656;2023-02-28T08:42:26;6.53;;;3.08;;
44925;SDS011;30662;51.210;7.656;2023-02-28T08:44:52;4.13;;;2.80;;
44925;SDS011;30662;51.210;7.656;2023-02-28T08:47:18;3.28;;;2.67;;
44925;SDS011;30662;51.210;7.656;2023-02-28T08:49:44;2.42;;;2.10;;
44925;SDS011;30662;51.210;7.656;2023-02-28T08:52:10;7.68;;;3.42;;
44925;SDS011;30662;51.210;7.656;2023-02-28T08:54:36;3.20;;;2.47;;
44925;SDS011;30662;51.210;7.656;2023-02-28T08:57:02;4.30;;;2.75;;
44925;SDS011;30662;51.210;7.656;2023-02-28T08:59:29;5.50;;;2.95;;
44925;SDS011;30662;51.210;7.656;2023-02-28T09:01:55;2.83;;;2.63;;
44925;SDS011;30662;51.210;7.656;2023-02-28T09:04:21;4.47;;;3.17;;
44925;SDS011;30662;51.210;7.656;2023-02-28T09:06:50;3.50;;;3.20;;
44925;SDS011;30662;51.210;7.656;2023-02-28T09:09:16;2.80;;;2.60;;
44925;SDS011;30662;51.210;7.656;2023-02-28T09:11:42;4.18;;;2.97;;
44925;SDS011;30662;51.210;7.656;2023-02-28T09:14:08;4.45;;;3.05;;
44925;SDS011;30662;51.210;7.656;2023-02-28T09:16:34;2.40;;;2.20;;
44925;SDS011;30662;51.210;7.656;2023-02-28T09:19:01;4.30;;;2.60;;
44925;SDS011;30662;51.210;7.656;2023-02-28T09:21:27;4.00;;;2.38;;
44925;SDS011;30662;51.210;7.656;2023-02-28T09:23:54;4.45;;;2.47;;
44925;SDS011;30662;51.210;7.656;2023-02-28T09:26:21;3.45;;;2.50;;
44925;SDS011;30662;51.210;7.656;2023-02-28T09:28:52;8.88;;;2.70;;
44925;SDS011;30662;51.210;7.656;2023-02-28T09:31:20;2.67;;;2.42;;
44925;SDS011;30662;51.210;7.656;2023-02-28T09:33:49;6.35;;;1.90;;
44925;SDS011;30662;51.210;7.656;2023-02-28T09:36:16;2.50;;;2.00;;
44925;SDS011;30662;51.210;7.656;2023-02-28T09:38:43;2.35;;;1.85;;
44925;SDS011;30662;51.210;7.656;2023-02-28T09:41:16;2.10;;;1.90;;
44925;SDS011;30662;51.210;7.656;2023-02-28T09:44:06;7.25;;;2.45;;
44925;SDS011;30662;51.210;7.656;2023-02-28T09:46:43;3.75;;;2.90;;
44925;SDS011;30662;51.210;7.656;2023-02-28T09:49:13;3.05;;;2.30;;
44925;SDS011;30662;51.210;7.656;2023-02-28T09:54:10;2.83;;;2.28;;
44925;SDS011;30662;51.210;7.656;2023-02-28T09:57:32;3.42;;;2.20;;
44925;SDS011;30662;51.210;7.656;2023-02-28T09:59:49;5.13;;;2.08;;
44925;SDS011;30662;51.210;7.656;2023-02-28T10:05:37;4.40;;;2.17;;
44925;SDS011;30662;51.210;7.656;2023-02-28T10:08:19;3.03;;;2.33;;
44925;SDS011;30662;51.210;7.656;2023-02-28T10:10:51;3.13;;;2.13;;
44925;SDS011;30662;51.210;7.656;2023-02-28T10:13:33;3.30;;;2.13;;
44925;SDS011;30662;51.210;7.656;2023-02-28T10:16:10;3.13;;;1.95;;
44925;SDS011;30662;51.210;7.656;2023-02-28T10:18:41;2.75;;;2.22;;
44925;SDS011;30662;51.210;7.656;2023-02-28T10:21:15;2.20;;;2.00;;
44925;SDS011;30662;51.210;7.656;2023-02-28T10:23:46;3.15;;;2.15;;
44925;SDS011;30662;51.210;7.656;2023-02-28T10:26:14;2.42;;;2.22;;
44925;SDS011;30662;51.210;7.656;2023-02-28T10:28:42;3.55;;;2.08;;
44925;SDS011;30662;51.210;7.656;2023-02-28T10:31:11;2.72;;;2.33;;
44925;SDS011;30662;51.210;7.656;2023-02-28T10:33:43;3.97;;;1.88;;
44925;SDS011;30662;51.210;7.656;2023-02-28T10:36:12;2.25;;;1.70;;
44925;SDS011;30662;51.210;7.656;2023-02-28T10:38:40;2.38;;;1.73;;
44925;SDS011;30662;51.210;7.656;2023-02-28T10:41:09;2.00;;;1.80;;
44925;SDS011;30662;51.210;7.656;2023-02-28T10:43:45;1.52;;;1.42;;
44925;SDS011;30662;51.210;7.656;2023-02-28T10:46:15;2.08;;;1.55;;
44925;SDS011;30662;51.210;7.656;2023-02-28T10:49:02;2.15;;;1.48;;
44925;SDS011;30662;51.210;7.656;2023-02-28T10:51:34;3.05;;;1.80;;
44925;SDS011;30662;51.210;7.656;2023-02-28T10:54:03;3.15;;;1.52;;
44925;SDS011;30662;51.210;7.656;2023-02-28T10:56:30;3.17;;;1.77;;
44925;SDS011;30662;51.210;7.656;2023-02-28T10:58:59;2.08;;;1.60;;
44925;SDS011;30662;51.210;7.656;2023-02-28T11:01:41;3.13;;;1.80;;
44925;SDS011;30662;51.210;7.656;2023-02-28T11:07:17;3.00;;;1.65;;
44925;SDS011;30662;51.210;7.656;2023-02-28T11:09:49;4.00;;;1.67;;
44925;SDS011;30662;51.210;7.656;2023-02-28T11:12:19;1.48;;;1.02;;
44925;SDS011;30662;51.210;7.656;2023-02-28T11:14:53;4.22;;;1.30;;
44925;SDS011;30662;51.210;7.656;2023-02-28T11:17:24;1.58;;;1.27;;
44925;SDS011;30662;51.210;7.656;2023-02-28T11:19:56;1.88;;;1.48;;
44925;SDS011;30662;51.210;7.656;2023-02-28T11:22:27;1.15;;;0.95;;
44925;SDS011;30662;51.210;7.656;2023-02-28T11:24:56;1.67;;;1.33;;
44925;SDS011;30662;51.210;7.656;2023-02-28T11:29:59;3.42;;;1.58;;
44925;SDS011;30662;51.210;7.656;2023-02-28T11:32:27;2.35;;;1.60;;
44925;SDS011;30662;51.210;7.656;2023-02-28T11:37:37;4.55;;;1.50;;
44925;SDS011;30662;51.210;7.656;2023-02-28T11:40:05;1.63;;;1.15;;
44925;SDS011;30662;51.210;7.656;2023-02-28T11:42:45;2.25;;;1.50;;
44925;SDS011;30662;51.210;7.656;2023-02-28T11:56:30;3.15;;;1.50;;
44925;SDS011;30662;51.210;7.656;2023-02-28T12:05:08;2.65;;;1.27;;
44925;SDS011;30662;51.210;7.656;2023-02-28T12:25:44;4.22;;;1.30;;
44925;SDS011;30662;51.210;7.656;2023-02-28T12:28:14;1.60;;;1.15;;
44925;SDS011;30662;51.210;7.656;2023-02-28T12:30:53;1.50;;;1.05;;
44925;SDS011;30662;51.210;7.656;2023-02-28T12:33:28;2.05;;;1.40;;
44925;SDS011;30662;51.210;7.656;2023-02-28T12:36:00;2.03;;;1.42;;
44925;SDS011;30662;51.210;7.656;2023-02-28T12:38:45;2.80;;;1.13;;
44925;SDS011;30662;51.210;7.656;2023-02-28T12:46:53;9.73;;;1.63;;
44925;SDS011;30662;51.210;7.656;2023-02-28T12:49:25;2.47;;;1.45;;
44925;SDS011;30662;51.210;7.656;2023-02-28T12:51:57;2.38;;;1.20;;
44925;SDS011;30662;51.210;7.656;2023-02-28T12:54:31;3.10;;;1.40;;
44925;SDS011;30662;51.210;7.656;2023-02-28T12:59:51;2.17;;;1.57;;
44925;SDS011;30662;51.210;7.656;2023-02-28T13:05:27;2.85;;;1.70;;
44925;SDS011;30662;51.210;7.656;2023-02-28T13:11:02;2.45;;;1.40;;
44925;SDS011;30662;51.210;7.656;2023-02-28T13:13:32;2.38;;;1.40;;
44925;SDS011;30662;51.210;7.656;2023-02-28T13:18:36;2.75;;;1.73;;
44925;SDS011;30662;51.210;7.656;2023-02-28T13:21:24;2.40;;;1.35;;
44925;SDS011;30662;51.210;7.656;2023-02-28T13:26:22;2.28;;;1.75;;
44925;SDS011;30662;51.210;7.656;2023-02-28T13:29:02;3.53;;;1.50;;
44925;SDS011;30662;51.210;7.656;2023-02-28T13:34:34;5.68;;;1.50;;
44925;SDS011;30662;51.210;7.656;2023-02-28T13:39:46;1.45;;;1.25;;
44925;SDS011;30662;51.210;7.656;2023-02-28T13:47:40;2.05;;;1.30;;
44925;SDS011;30662;51.210;7.656;2023-02-28T13:58:18;3.90;;;3.00;;
44925;SDS011;30662;51.210;7.656;2023-02-28T14:03:46;2.33;;;2.00;;
44925;SDS011;30662;51.210;7.656;2023-02-28T14:06:28;3.92;;;2.47;;
44925;SDS011;30662;51.210;7.656;2023-02-28T14:11:42;2.78;;;2.33;;
44925;SDS011;30662;51.210;7.656;2023-02-28T14:14:09;3.25;;;2.15;;
44925;SDS011;30662;51.210;7.656;2023-02-28T14:17:15;3.08;;;2.10;;
44925;SDS011;30662;51.210;7.656;2023-02-28T14:19:45;3.10;;;2.20;;
44925;SDS011;30662;51.210;7.656;2023-02-28T14:28:12;4.20;;;2.78;;
44925;SDS011;30662;51.210;7.656;2023-02-28T14:30:52;4.57;;;3.40;;
44925;SDS011;30662;51.210;7.656;2023-02-28T14:33:27;4.40;;;2.88;;
44925;SDS011;30662;51.210;7.656;2023-02-28T14:36:18;5.22;;;3.50;;
44925;SDS011;30662;51.210;7.656;2023-02-28T14:38:51;4.30;;;3.20;;
44925;SDS011;30662;51.210;7.656;2023-02-28T14:41:38;7.47;;;3.55;;
44925;SDS011;30662;51.210;7.656;2023-02-28T14:46:49;2.90;;;2.60;;
44925;SDS011;30662;51.210;7.656;2023-02-28T14:52:26;6.32;;;3.88;;
44925;SDS011;30662;51.210;7.656;2023-02-28T14:55:01;5.35;;;3.15;;
44925;SDS011;30662;51.210;7.656;2023-02-28T14:57:34;4.50;;;3.30;;
44925;SDS011;30662;51.210;7.656;2023-02-28T15:00:27;3.30;;;2.65;;
44925;SDS011;30662;51.210;7.656;2023-02-28T15:02:55;5.70;;;3.25;;
44925;SDS011;30662;51.210;7.656;2023-02-28T15:05:26;6.53;;;4.88;;
44925;SDS011;30662;51.210;7.656;2023-02-28T15:08:01;9.68;;;4.40;;
44925;SDS011;30662;51.210;7.656;2023-02-28T15:10:29;4.30;;;3.65;;
44925;SDS011;30662;51.210;7.656;2023-02-28T15:13:06;3.38;;;3.05;;
44925;SDS011;30662;51.210;7.656;2023-02-28T15:21:18;7.72;;;5.07;;
44925;SDS011;30662;51.210;7.656;2023-02-28T15:23:51;4.57;;;4.18;;
44925;SDS011;30662;51.210;7.656;2023-02-28T15:26:23;10.52;;;4.28;;
44925;SDS011;30662;51.210;7.656;2023-02-28T15:28:59;5.30;;;3.55;;
44925;SDS011;30662;51.210;7.656;2023-02-28T15:31:34;4.03;;;2.90;;
44925;SDS011;30662;51.210;7.656;2023-02-28T15:34:43;5.15;;;2.78;;
44925;SDS011;30662;51.210;7.656;2023-02-28T15:40:32;6.00;;;4.07;;
44925;SDS011;30662;51.210;7.656;2023-02-28T15:46:10;4.95;;;3.08;;
44925;SDS011;30662;51.210;7.656;2023-02-28T15:48:51;7.72;;;3.53;;
44925;SDS011;30662;51.210;7.656;2023-02-28T15:51:29;6.70;;;3.45;;
44925;SDS011;30662;51.210;7.656;2023-02-28T15:54:00;5.82;;;3.17;;
44925;SDS011;30662;51.210;7.656;2023-02-28T15:56:31;5.43;;;3.25;;
44925;SDS011;30662;51.210;7.656;2023-02-28T15:58:59;3.22;;;2.92;;
44925;SDS011;30662;51.210;7.656;2023-02-28T16:01:35;3.08;;;2.80;;
44925;SDS011;30662;51.210;7.656;2023-02-28T16:04:04;5.70;;;3.50;;
44925;SDS011;30662;51.210;7.656;2023-02-28T16:06:33;3.25;;;2.85;;
44925;SDS011;30662;51.210;7.656;2023-02-28T16:08:59;4.28;;;3.35;;
44925;SDS011;30662;51.210;7.656;2023-02-28T16:11:25;4.43;;;3.65;;
44925;SDS011;30662;51.210;7.656;2023-02-28T16:13:51;4.28;;;3.22;;
44925;SDS011;30662;51.210;7.656;2023-02-28T16:16:19;4.03;;;3.50;;
44925;SDS011;30662;51.210;7.656;2023-02-28T16:18:48;5.40;;;3.55;;
44925;SDS011;30662;51.210;7.656;2023-02-28T16:21:14;5.15;;;3.10;;
44925;SDS011;30662;51.210;7.656;2023-02-28T16:23:40;3.95;;;3.58;;
44925;SDS011;30662;51.210;7.656;2023-02-28T16:26:07;4.93;;;3.40;;
44925;SDS011;30662;51.210;7.656;2023-02-28T16:28:36;4.82;;;3.33;;
44925;SDS011;30662;51.210;7.656;2023-02-28T16:31:05;5.68;;;4.00;;
44925;SDS011;30662;51.210;7.656;2023-02-28T16:33:33;5.32;;;4.82;;
44925;SDS011;30662;51.210;7.656;2023-02-28T16:35:59;7.30;;;5.45;;
44925;SDS011;30662;51.210;7.656;2023-02-28T16:38:26;8.55;;;5.55;;
44925;SDS011;30662;51.210;7.656;2023-02-28T16:40:53;6.07;;;5.05;;
44925;SDS011;30662;51.210;7.656;2023-02-28T16:43:24;6.25;;;4.05;;
44925;SDS011;30662;51.210;7.656;2023-02-28T16:45:55;4.85;;;3.80;;
44925;SDS011;30662;51.210;7.656;2023-02-28T16:48:26;5.57;;;4.50;;
44925;SDS011;30662;51.210;7.656;2023-02-28T16:50:52;4.38;;;3.97;;
44925;SDS011;30662;51.210;7.656;2023-02-28T16:53:18;5.40;;;4.22;;
44925;SDS011;30662;51.210;7.656;2023-02-28T16:55:44;4.85;;;4.20;;
44925;SDS011;30662;51.210;7.656;2023-02-28T16:58:13;4.32;;;3.60;;
44925;SDS011;30662;51.210;7.656;2023-02-28T17:00:40;5.50;;;4.07;;
44925;SDS011;30662;51.210;7.656;2023-02-28T17:03:21;4.57;;;4.05;;
44925;SDS011;30662;51.210;7.656;2023-02-28T17:05:58;6.50;;;4.22;;
44925;SDS011;30662;51.210;7.656;2023-02-28T17:08:24;5.63;;;3.92;;
44925;SDS011;30662;51.210;7.656;2023-02-28T17:10:50;8.45;;;4.68;;
44925;SDS011;30662;51.210;7.656;2023-02-28T17:13:16;4.75;;;4.00;;
44925;SDS011;30662;51.210;7.656;2023-02-28T17:15:42;6.40;;;4.20;;
44925;SDS011;30662;51.210;7.656;2023-02-28T17:18:15;7.85;;;3.92;;
44925;SDS011;30662;51.210;7.656;2023-02-28T17:20:46;5.20;;;4.63;;
44925;SDS011;30662;51.210;7.656;2023-02-28T17:23:13;4.40;;;4.00;;
44925;SDS011;30662;51.210;7.656;2023-02-28T17:25:39;14.73;;;4.78;;
44925;SDS011;30662;51.210;7.656;2023-02-28T17:28:05;6.95;;;4.28;;
44925;SDS011;30662;51.210;7.656;2023-02-28T17:30:32;8.00;;;4.70;;
44925;SDS011;30662;51.210;7.656;2023-02-28T17:32:59;7.32;;;5.60;;
44925;SDS011;30662;51.210;7.656;2023-02-28T17:35:25;6.70;;;4.75;;
44925;SDS011;30662;51.210;7.656;2023-02-28T17:37:52;11.02;;;7.15;;
44925;SDS011;30662;51.210;7.656;2023-02-28T17:40:19;6.55;;;5.18;;
44925;SDS011;30662;51.210;7.656;2023-02-28T17:42:47;6.93;;;4.63;;